Patuxent River, Maryland
Current Conditions -  °F | °C
As of 5:52 PM on Thursday 18 Dec 2014 (Local Time) from KNHK Reporting Station
Broken Clouds Broken Clouds  
Wind Chill: 31°   Ceiling: 25000
Heat Index: 38°   Visibility: 10mi
Dew Point: 23°   Wind: 10mph
Humidity: 55%   Direction: 340°NNW
Pressure: 30.11"   Gusts: NA
Location:  38.28°N, 76.4°W
Report Text: KNHK 182252Z 34009KT 10SM SCT120 BKN250 03/M05 A3011 RMK AO2 SLP195 T00331050
Loading
Personal Weather Stations






























Interactive Weather Map New forecast layout! Learn more

10-Day Weather Forecast

Advertisements
Track Severe Weather on mobile